Etusivu
METAR-TAF:

METAR-TAF

Lentoasemat :

Ankeny Regional Airport

Ankeny, Iowa, Yhdysvallat

Leveyspiiri: 41-41-24N, Pituuspiiri: 093-33-57W, korkeus merenpinnasta: 275 m

Tämänhetkinen sää

Tämä raportti tehtiin 19 minuuttia sitten, kello 16.55 UTC
Tuuli 11 kn etelästä/lounaasta
Lämpötila -2°C
Kosteus 59%
Ilmanpaine 1016 hPa
Näkyvyys: 16.1 km
Muutamia pilviä 9000 ft:n korkeudessa

METAR: KIKV 131655Z AUTO 21011KT 10SM FEW090 M02/M09 A2999 RMK AO2

Aika: 11:14 (17:14 UTC)


TAF: puuttuu

Säähavainnot ja -ennusteet yli 4000 lentoasemalta (METAR- ja TAF-raportit).

Käytössä olevat sääasemat on merkitty karttaan keltaisilla ja punaisilla pisteillä.

Aseta hiiri pisteen päälle nähdäksesi sääaseman nimen.

Klikkaa sitten nähdäksesi säähavainnot ja -ennusteet.

Kartan vaihtaminen: klikkaa mustalla rastilla varustettuja vihreitä pisteitä, niin voit zoomata sisään; viivalla varustettua vihreää pistettä, niin voit zoomata ulos tai vihreitä nuolia, niin pääset viereisille kartoille.


METAR-TAF: